McKean County Weather on FaceBook
Current Metar reports for airports in our Region

Nearby METAR Reports

Metar reports(Meteorological Terminal Aviation Routine) are mainly used by pilots for information on what is happening at their destination during their pre-flight weather briefings and by meteorologists to assist in short term forecasts. A raw Metar is one of the most universal ways to communicate weather information in the world and are usually transmitted by airports, but some come from permanent sanctioned weather observatories.

Listed below are Metars from airports within 100 miles of our station here in Smethport Pa. The first one of course is the Bradford Regional Airport, then the Olean NY airport and so on. Each airport has it's own table to display it's data and at the bottom of the table is 'Raw' Metar for each airport. Most pilots and weather forecasters can look at the raw data and tell you what is up, but we use a script that handles all of the details for us.

KBFD - Bradford, Pennsylvania, USA
Distance from station: NW 7mi, 11km
Updated: Wed, 24-Jul-2019 12:53am EDT
Mostly Cloudy
Mostly Cloudy
 Wind from NW
Wind: NW 3 mph , 6 km/h
Temperature: 55°F , 13°C
Dew Point: 54°F , 12°C
Humidity: 94%
Barometer: 30.02 inHg , 1016.6 hPa
Clouds: Mostly Cloudy
Visibility: 10 miles , 16 km
Cloud details: Mostly Cloudy 5500 ft
2019/07/24 04:53 KBFD 240453Z AUTO 31003KT 10SM BKN055 13/12 A3002 RMK AO2 SLP155 T01330122 402280128
KOLE - Olean, New York, USA
Distance from station: NNE 37mi, 59km
Updated: Wed, 24-Jul-2019 12:55am EDT
Clear
Clear
 Wind from WNW
Wind: WNW 3 mph , 6 km/h
Temperature: 54°F , 12°C
Dew Point: 54°F , 12°C
Humidity: 100%
Barometer: 30.03 inHg , 1016.9 hPa
Clouds: Clear
Visibility: 10 miles , 16 km
2019/07/24 04:55 KOLE 240455Z AUTO 30003KT 10SM CLR 12/12 A3003 RMK AO2
 
KELZ - Wellsville, New York, USA
Distance from station: NE 40mi, 64km
Updated: Wed, 24-Jul-2019 12:56am EDT
Clear
Clear
 Wind from WNW
Wind: WNW 7 mph , 11 km/h
Temperature: 55°F , 13°C
Dew Point: 54°F , 12°C
Humidity: 94%
Barometer: 30.03 inHg , 1016.9 hPa
Clouds: Clear
Visibility: 10 miles , 16 km
2019/07/24 04:56 KELZ 240456Z AUTO 30006KT 10SM CLR 13/12 A3003 RMK AO2 SLP163 T01280117 402280128
KDUJ - Du Bois, Pennsylvania, USA
Distance from station: SSW 42mi, 68km
Updated: Wed, 24-Jul-2019 12:53am EDT
Clear
Clear
 Wind from NNW
Wind: NNW 6 mph , 9 km/h
Temperature: 61°F , 16°C
Dew Point: 50°F , 10°C
Humidity: 68%
Barometer: 30.00 inHg , 1015.9 hPa
Clouds: Clear
Visibility: 10 miles , 16 km
2019/07/24 04:53 KDUJ 240453Z AUTO 34005KT 10SM CLR 16/10 A3000 RMK AO2 SLP149 T01560100 402330139 $
 
KJHW - Jamestown, New York, USA
Distance from station: NW 46mi, 75km
Updated: Wed, 24-Jul-2019 12:56am EDT
Clear
Clear
 Wind from calm
Wind: Calm
Temperature: 57°F , 14°C
Dew Point: 54°F , 12°C
Humidity: 88%
Barometer: 30.02 inHg , 1016.6 hPa
Clouds: Clear
Visibility: 10 miles , 16 km
2019/07/24 04:56 KJHW 240456Z AUTO 00000KT 10SM CLR 14/12 A3002 RMK AO2 SLP164 T01390122 402170133
KFIG - Clearfield, Pennsylvania, USA
Distance from station: S 47mi, 75km
Updated: Wed, 24-Jul-2019 12:54am EDT
Mostly Cloudy
Mostly Cloudy
 Wind from calm
Wind: Calm
Temperature: 61°F , 16°C
Dew Point: 57°F , 14°C
Humidity: 88%
Barometer: 30.00 inHg , 1015.9 hPa
Clouds: Mostly Cloudy
Visibility: 10 miles , 16 km
Cloud details: Mostly Cloudy 11000 ft
2019/07/24 04:54 KFIG 240454Z AUTO 00000KT 10SM BKN110 16/14 A3000 RMK AO2 SLP150 T01560144 402500156
 
KDKK - Dunkirk, New York, USA
Distance from station: NW 66mi, 106km
Updated: Wed, 24-Jul-2019 12:53am EDT
Clear
Clear
 Wind from calm
Wind: Calm
Temperature: 63°F , 17°C
Dew Point: 55°F , 13°C
Humidity: 77%
Barometer: 29.98 inHg , 1015.2 hPa
Clouds: Clear
Visibility: 10 miles , 16 km
2019/07/24 04:53 KDKK 240453Z AUTO 00000KT 10SM CLR 17/13 A2998 RMK AO2 SLP148 T01670133 402390167
KUNV - State College, Pennsylvania, USA
Distance from station: SSE 71mi, 114km
Updated: Wed, 24-Jul-2019 12:55am EDT
Overcast
Overcast
 Wind from calm
Wind: Calm
Temperature: 61°F , 16°C
Dew Point: 59°F , 15°C
Humidity: 94%
Barometer: 29.97 inHg , 1014.9 hPa
Clouds: Overcast
Visibility: 10 miles , 16 km
Cloud details: Overcast 9500 ft
2019/07/24 04:55 KUNV 240455Z AUTO 00000KT 10SM OVC095 16/15 A2997 RMK AO2 T01570152
 
KFKL - Franklin, Pennsylvania, USA
Distance from station: WSW 72mi, 116km
Updated: Wed, 24-Jul-2019 12:56am EDT
Clear
Clear
 Wind from SSW
Wind: SSW 3 mph , 6 km/h
Temperature: 55°F , 13°C
Dew Point: 52°F , 11°C
Humidity: 88%
Barometer: 30.02 inHg , 1016.6 hPa
Clouds: Clear
Visibility: 10 miles , 16 km
2019/07/24 04:56 KFKL 240456Z AUTO 21003KT 10SM CLR 13/11 A3002 RMK AO2 SLP162 T01280111 402330128
KDSV - Dansville, New York, USA
Distance from station: NE 73mi, 117km
Updated: Wed, 24-Jul-2019 12:54am EDT
Clear
Clear
 Wind from calm
Wind: Calm
Temperature: 59°F , 15°C
Dew Point: 57°F , 14°C
Humidity: 94%
Barometer: 29.99 inHg , 1015.6 hPa
Clouds: Clear
Visibility: 10 miles , 16 km
2019/07/24 04:54 KDSV 240454Z AUTO 00000KT 10SM CLR 15/14 A2999 RMK AO2 SLP161 T01500144 402560150
 
KIDI - Indiana/Stewart, Pennsylvania, USA
Distance from station: SSW 81mi, 130km
Updated: Wed, 24-Jul-2019 12:55am EDT
Clear
Clear
 Wind from calm
Wind: Calm
Temperature: 59°F , 15°C
Dew Point: 57°F , 14°C
Humidity: 94%
Barometer: 30.04 inHg , 1017.3 hPa
Clouds: Clear
Visibility: 10 miles , 16 km
2019/07/24 04:55 KIDI 240455Z AUTO 00000KT 10SM CLR 15/14 A3004 RMK A01
KBUF - Buffalo/Cheektow, New York, USA
Distance from station: N 84mi, 136km
Updated: Wed, 24-Jul-2019 12:54am EDT
Few Clouds
Few Clouds
 Wind from calm
Wind: Calm
Temperature: 64°F , 18°C
Dew Point: 54°F , 12°C
Humidity: 68%
Barometer: 29.98 inHg , 1015.2 hPa
Clouds: Few Clouds
Visibility: 10 miles , 16 km
Cloud details: Few Clouds 7000 ft
2019/07/24 04:54 KBUF 240454Z 00000KT 10SM FEW070 18/12 A2998 RMK AO2 SLP148 T01780122 402670178
 
KGKJ - Meadville, Pennsylvania, USA
Distance from station: W 86mi, 138km
Updated: Wed, 24-Jul-2019 12:53am EDT
Clear
Clear
 Wind from calm
Wind: Calm
Temperature: 61°F , 16°C
Dew Point: 54°F , 12°C
Humidity: 77%
Barometer: 30.02 inHg , 1016.6 hPa
Clouds: Clear
Visibility: 10 miles , 16 km
2019/07/24 04:53 KGKJ 240453Z AUTO 00000KT 10SM CLR 16/12 A3002 RMK AO2 SLP158 T01560117 402330156 TSNO $
KERI - Erie, Pennsylvania, USA
Distance from station: WNW 87mi, 140km
Updated: Wed, 24-Jul-2019 12:51am EDT
Overcast
Overcast
 Wind from NNW
Wind: NNW 6 mph , 9 km/h
Temperature: 72°F , 22°C
Dew Point: 52°F , 11°C
Humidity: 50%
Barometer: 29.99 inHg , 1015.6 hPa
Clouds: Overcast
Visibility: 10 miles , 16 km
Cloud details: Mostly Cloudy 6500 ft
Overcast 9500 ft
2019/07/24 04:51 KERI 240451Z AUTO 34005KT 10SM BKN065 OVC095 22/11 A2999 RMK AO2 SLP152 T02220106 402440206 TSNO
 
KELM - Elmira, New York, USA
Distance from station: ENE 90mi, 145km
Updated: Wed, 24-Jul-2019 12:53am EDT
Mostly Cloudy
Mostly Cloudy
 Wind from WSW
Wind: WSW 7 mph , 11 km/h
Temperature: 61°F , 16°C
Dew Point: 57°F , 14°C
Humidity: 88%
Barometer: 29.96 inHg , 1014.6 hPa
Clouds: Mostly Cloudy
Visibility: 10 miles , 16 km
Cloud details: Mostly Cloudy 300 ft
2019/07/24 04:53 KELM 240453Z AUTO 25006KT 10SM BKN003 16/14 A2996 RMK AO2 SLP141 T01560144 402560139
KIPT - Williamsport, Pennsylvania, USA
Distance from station: ESE 91mi, 146km
Updated: Wed, 24-Jul-2019 12:54am EDT
Few Clouds
Few Clouds
 Wind from W
Wind: W 9 mph , 15 km/h
Temperature: 63°F , 17°C
Dew Point: 61°F , 16°C
Humidity: 94%
Barometer: 29.94 inHg , 1013.9 hPa
Clouds: Few Clouds
Visibility: 10 miles , 16 km
Cloud details: Few Clouds 10000 ft
2019/07/24 04:54 KIPT 240454Z AUTO 28008KT 10SM FEW100 17/16 A2994 RMK AO2 SLP135 T01670156 402720167
 
KBTP - Butler Co., Pennsylvania, USA
Distance from station: SW 98mi, 157km
Updated: Wed, 24-Jul-2019 12:56am EDT
Clear
Clear
 Wind from calm
Wind: Calm
Temperature: 57°F , 14°C
Dew Point: 54°F , 12°C
Humidity: 88%
Barometer: 30.02 inHg , 1016.6 hPa
Clouds: Clear
Visibility: 10 miles , 16 km
2019/07/24 04:56 KBTP 240456Z AUTO 00000KT 10SM CLR 14/12 A3002 RMK AO2 SLP164 T01390117 402440133 PNO $
KAOO - Altoona, Pennsylvania, USA
Distance from station: S 99mi, 159km
Updated: Wed, 24-Jul-2019 12:53am EDT
Mist, Clear
Mist, Clear
 Wind from calm
Wind: Calm
Temperature: 61°F , 16°C
Dew Point: 57°F , 14°C
Humidity: 88%
Barometer: 29.99 inHg , 1015.6 hPa
Summary: Mist
Clouds: Clear
Visibility: 6 miles , 10 km
2019/07/24 04:53 KAOO 240453Z AUTO 00000KT 6SM BR CLR 16/14 A2999 RMK AO2 SLP148 T01560139 402560150
 
KPIT - Pittsburg, Pennsylvania, USA
Distance from station: SSW 126mi, 203km
Updated: Wed, 24-Jul-2019 12:51am EDT
Clear
Clear
 Wind from WNW
Wind: WNW 6 mph , 9 km/h
Temperature: 61°F , 16°C
Dew Point: 52°F , 11°C
Humidity: 72%
Barometer: 30.01 inHg , 1016.3 hPa
Clouds: Clear
Visibility: 10 miles , 16 km
2019/07/24 04:51 KPIT 240451Z 29005KT 10SM CLR 16/11 A3001 RMK AO2 SLP163 T01560111 402560156
KCLE - Cleveland, Ohio, USA
Distance from station: WSW 160mi, 258km
Updated: Wed, 24-Jul-2019 12:51am EDT
Partly Cloudy
Partly Cloudy
 Wind from SW
Wind: SW 3 mph , 6 km/h
Temperature: 64°F , 18°C
Dew Point: 57°F , 14°C
Humidity: 78%
Barometer: 30.05 inHg , 1017.6 hPa
Clouds: Partly Cloudy
Visibility: 10 miles , 16 km
Cloud details: Partly Cloudy 8500 ft
2019/07/24 04:51 KCLE 240451Z 23003KT 10SM SCT085 18/14 A3005 RMK AO2 SLP172 T01830139 402500183 $